sensor_id;sensor_type;location;lat;lon;timestamp;P1;durP1;ratioP1;P2;durP2;ratioP2
74269;SDS011;62754;48.252;11.654;2022-09-02T00:01:09;5.10;;;3.80;;
74269;SDS011;62754;48.252;11.654;2022-09-02T00:03:38;4.82;;;3.90;;
74269;SDS011;62754;48.252;11.654;2022-09-02T00:06:04;5.25;;;4.15;;
74269;SDS011;62754;48.252;11.654;2022-09-02T00:08:30;5.05;;;4.15;;
74269;SDS011;62754;48.252;11.654;2022-09-02T00:10:56;4.75;;;4.10;;
74269;SDS011;62754;48.252;11.654;2022-09-02T00:13:23;4.70;;;3.78;;
74269;SDS011;62754;48.252;11.654;2022-09-02T00:15:49;5.50;;;3.85;;
74269;SDS011;62754;48.252;11.654;2022-09-02T00:18:15;5.57;;;4.15;;
74269;SDS011;62754;48.252;11.654;2022-09-02T00:20:44;4.13;;;3.60;;
74269;SDS011;62754;48.252;11.654;2022-09-02T00:23:11;5.75;;;3.60;;
74269;SDS011;62754;48.252;11.654;2022-09-02T00:25:38;5.18;;;3.50;;
74269;SDS011;62754;48.252;11.654;2022-09-02T00:28:05;6.95;;;3.70;;
74269;SDS011;62754;48.252;11.654;2022-09-02T00:32:57;5.72;;;3.63;;
74269;SDS011;62754;48.252;11.654;2022-09-02T00:35:24;6.25;;;4.00;;
74269;SDS011;62754;48.252;11.654;2022-09-02T00:37:50;5.07;;;3.58;;
74269;SDS011;62754;48.252;11.654;2022-09-02T00:40:16;6.50;;;3.88;;
74269;SDS011;62754;48.252;11.654;2022-09-02T00:42:42;7.88;;;4.00;;
74269;SDS011;62754;48.252;11.654;2022-09-02T00:45:09;6.78;;;3.90;;
74269;SDS011;62754;48.252;11.654;2022-09-02T00:47:36;5.07;;;4.15;;
74269;SDS011;62754;48.252;11.654;2022-09-02T00:50:03;5.97;;;3.85;;
74269;SDS011;62754;48.252;11.654;2022-09-02T00:52:33;6.03;;;4.07;;
74269;SDS011;62754;48.252;11.654;2022-09-02T01:00:35;5.40;;;3.83;;
74269;SDS011;62754;48.252;11.654;2022-09-02T01:03:06;6.25;;;3.88;;
74269;SDS011;62754;48.252;11.654;2022-09-02T01:05:35;5.60;;;3.75;;
74269;SDS011;62754;48.252;11.654;2022-09-02T01:08:03;5.13;;;3.95;;
74269;SDS011;62754;48.252;11.654;2022-09-02T01:12:57;4.50;;;3.60;;
74269;SDS011;62754;48.252;11.654;2022-09-02T01:15:24;5.45;;;3.58;;
74269;SDS011;62754;48.252;11.654;2022-09-02T01:17:51;6.07;;;3.78;;
74269;SDS011;62754;48.252;11.654;2022-09-02T01:20:19;5.75;;;3.33;;
74269;SDS011;62754;48.252;11.654;2022-09-02T01:22:48;5.05;;;3.65;;
74269;SDS011;62754;48.252;11.654;2022-09-02T01:25:16;5.32;;;3.50;;
74269;SDS011;62754;48.252;11.654;2022-09-02T01:27:44;7.20;;;3.50;;
74269;SDS011;62754;48.252;11.654;2022-09-02T01:32:37;3.95;;;3.20;;
74269;SDS011;62754;48.252;11.654;2022-09-02T01:35:06;5.28;;;3.60;;
74269;SDS011;62754;48.252;11.654;2022-09-02T01:37:32;3.85;;;3.00;;
74269;SDS011;62754;48.252;11.654;2022-09-02T01:39:59;4.63;;;3.70;;
74269;SDS011;62754;48.252;11.654;2022-09-02T01:42:24;5.35;;;3.30;;
74269;SDS011;62754;48.252;11.654;2022-09-02T01:44:50;7.63;;;3.22;;
74269;SDS011;62754;48.252;11.654;2022-09-02T01:47:18;4.43;;;3.45;;
74269;SDS011;62754;48.252;11.654;2022-09-02T01:49:45;4.43;;;3.47;;
74269;SDS011;62754;48.252;11.654;2022-09-02T01:52:12;4.20;;;3.40;;
74269;SDS011;62754;48.252;11.654;2022-09-02T01:54:39;4.03;;;3.00;;
74269;SDS011;62754;48.252;11.654;2022-09-02T01:57:04;6.10;;;3.08;;
74269;SDS011;62754;48.252;11.654;2022-09-02T01:59:30;5.82;;;3.92;;
74269;SDS011;62754;48.252;11.654;2022-09-02T02:01:56;5.38;;;3.00;;
74269;SDS011;62754;48.252;11.654;2022-09-02T02:04:22;6.43;;;3.88;;
74269;SDS011;62754;48.252;11.654;2022-09-02T02:06:48;4.95;;;3.05;;
74269;SDS011;62754;48.252;11.654;2022-09-02T02:09:13;4.50;;;3.30;;
74269;SDS011;62754;48.252;11.654;2022-09-02T02:11:39;5.15;;;3.38;;
74269;SDS011;62754;48.252;11.654;2022-09-02T02:14:05;5.80;;;3.50;;
74269;SDS011;62754;48.252;11.654;2022-09-02T02:16:31;4.80;;;3.50;;
74269;SDS011;62754;48.252;11.654;2022-09-02T02:18:57;6.40;;;3.90;;
74269;SDS011;62754;48.252;11.654;2022-09-02T02:21:23;4.97;;;3.90;;
74269;SDS011;62754;48.252;11.654;2022-09-02T02:23:49;5.25;;;3.45;;
74269;SDS011;62754;48.252;11.654;2022-09-02T02:26:15;5.00;;;3.50;;
74269;SDS011;62754;48.252;11.654;2022-09-02T02:28:41;5.07;;;3.88;;
74269;SDS011;62754;48.252;11.654;2022-09-02T02:31:07;4.72;;;3.55;;
74269;SDS011;62754;48.252;11.654;2022-09-02T02:33:33;6.13;;;3.45;;
74269;SDS011;62754;48.252;11.654;2022-09-02T02:35:59;5.13;;;4.07;;
74269;SDS011;62754;48.252;11.654;2022-09-02T02:38:26;5.38;;;4.00;;
74269;SDS011;62754;48.252;11.654;2022-09-02T02:40:55;5.20;;;4.03;;
74269;SDS011;62754;48.252;11.654;2022-09-02T02:43:23;4.43;;;3.42;;
74269;SDS011;62754;48.252;11.654;2022-09-02T02:45:50;5.25;;;3.80;;
74269;SDS011;62754;48.252;11.654;2022-09-02T02:48:16;5.60;;;3.75;;
74269;SDS011;62754;48.252;11.654;2022-09-02T02:50:42;6.20;;;3.92;;
74269;SDS011;62754;48.252;11.654;2022-09-02T02:53:08;4.45;;;3.70;;
74269;SDS011;62754;48.252;11.654;2022-09-02T02:55:34;5.45;;;3.97;;
74269;SDS011;62754;48.252;11.654;2022-09-02T02:58:00;4.82;;;3.83;;
74269;SDS011;62754;48.252;11.654;2022-09-02T03:00:27;5.18;;;3.78;;
74269;SDS011;62754;48.252;11.654;2022-09-02T03:02:57;5.40;;;4.00;;
74269;SDS011;62754;48.252;11.654;2022-09-02T03:05:25;5.18;;;4.28;;
74269;SDS011;62754;48.252;11.654;2022-09-02T03:07:52;6.30;;;4.35;;
74269;SDS011;62754;48.252;11.654;2022-09-02T03:12:44;5.82;;;4.80;;
74269;SDS011;62754;48.252;11.654;2022-09-02T03:15:10;5.97;;;4.90;;
74269;SDS011;62754;48.252;11.654;2022-09-02T03:17:36;5.15;;;4.63;;
74269;SDS011;62754;48.252;11.654;2022-09-02T03:20:03;7.20;;;5.07;;
74269;SDS011;62754;48.252;11.654;2022-09-02T03:22:30;8.02;;;5.07;;
74269;SDS011;62754;48.252;11.654;2022-09-02T03:24:56;7.50;;;5.43;;
74269;SDS011;62754;48.252;11.654;2022-09-02T03:27:21;5.97;;;4.95;;
74269;SDS011;62754;48.252;11.654;2022-09-02T03:29:47;6.05;;;5.00;;
74269;SDS011;62754;48.252;11.654;2022-09-02T03:32:13;8.13;;;4.95;;
74269;SDS011;62754;48.252;11.654;2022-09-02T03:34:39;6.93;;;5.05;;
74269;SDS011;62754;48.252;11.654;2022-09-02T03:37:05;6.47;;;5.10;;
74269;SDS011;62754;48.252;11.654;2022-09-02T03:39:30;5.97;;;5.30;;
74269;SDS011;62754;48.252;11.654;2022-09-02T03:41:56;6.70;;;5.32;;
74269;SDS011;62754;48.252;11.654;2022-09-02T03:44:22;6.20;;;5.60;;
74269;SDS011;62754;48.252;11.654;2022-09-02T03:46:48;7.25;;;5.72;;
74269;SDS011;62754;48.252;11.654;2022-09-02T03:49:13;7.03;;;5.30;;
74269;SDS011;62754;48.252;11.654;2022-09-02T03:51:39;6.15;;;5.18;;
74269;SDS011;62754;48.252;11.654;2022-09-02T03:54:07;7.15;;;5.55;;
74269;SDS011;62754;48.252;11.654;2022-09-02T03:56:33;5.80;;;4.75;;
74269;SDS011;62754;48.252;11.654;2022-09-02T03:58:59;7.18;;;5.40;;
74269;SDS011;62754;48.252;11.654;2022-09-02T04:01:25;5.82;;;5.07;;
74269;SDS011;62754;48.252;11.654;2022-09-02T04:03:51;7.22;;;5.55;;
74269;SDS011;62754;48.252;11.654;2022-09-02T04:06:18;7.15;;;5.30;;
74269;SDS011;62754;48.252;11.654;2022-09-02T04:08:46;6.38;;;4.80;;
74269;SDS011;62754;48.252;11.654;2022-09-02T04:11:14;6.07;;;4.80;;
74269;SDS011;62754;48.252;11.654;2022-09-02T04:13:42;8.00;;;5.30;;
74269;SDS011;62754;48.252;11.654;2022-09-02T04:16:11;6.35;;;4.72;;
74269;SDS011;62754;48.252;11.654;2022-09-02T04:18:38;6.88;;;5.65;;
74269;SDS011;62754;48.252;11.654;2022-09-02T04:21:05;7.57;;;5.30;;
74269;SDS011;62754;48.252;11.654;2022-09-02T04:23:31;5.95;;;4.93;;
74269;SDS011;62754;48.252;11.654;2022-09-02T04:25:57;6.28;;;5.20;;
74269;SDS011;62754;48.252;11.654;2022-09-02T04:28:27;7.45;;;5.65;;
74269;SDS011;62754;48.252;11.654;2022-09-02T04:30:53;9.45;;;6.10;;
74269;SDS011;62754;48.252;11.654;2022-09-02T04:33:18;6.22;;;5.20;;
74269;SDS011;62754;48.252;11.654;2022-09-02T04:35:45;7.00;;;5.60;;
74269;SDS011;62754;48.252;11.654;2022-09-02T04:38:12;7.22;;;5.68;;
74269;SDS011;62754;48.252;11.654;2022-09-02T04:40:41;7.25;;;6.22;;
74269;SDS011;62754;48.252;11.654;2022-09-02T04:43:09;5.35;;;4.80;;
74269;SDS011;62754;48.252;11.654;2022-09-02T04:45:38;7.85;;;5.35;;
74269;SDS011;62754;48.252;11.654;2022-09-02T04:48:07;6.28;;;5.32;;
74269;SDS011;62754;48.252;11.654;2022-09-02T04:50:34;6.90;;;5.20;;
74269;SDS011;62754;48.252;11.654;2022-09-02T04:53:02;7.30;;;5.45;;
74269;SDS011;62754;48.252;11.654;2022-09-02T04:55:29;6.80;;;5.68;;
74269;SDS011;62754;48.252;11.654;2022-09-02T04:57:55;7.22;;;5.70;;
74269;SDS011;62754;48.252;11.654;2022-09-02T05:00:21;6.07;;;5.28;;
74269;SDS011;62754;48.252;11.654;2022-09-02T05:02:46;6.40;;;5.60;;
74269;SDS011;62754;48.252;11.654;2022-09-02T05:05:12;6.35;;;5.13;;
74269;SDS011;62754;48.252;11.654;2022-09-02T05:07:38;8.45;;;5.53;;
74269;SDS011;62754;48.252;11.654;2022-09-02T05:10:04;7.70;;;5.70;;
74269;SDS011;62754;48.252;11.654;2022-09-02T05:12:32;6.85;;;5.55;;
74269;SDS011;62754;48.252;11.654;2022-09-02T05:14:59;7.05;;;5.25;;
74269;SDS011;62754;48.252;11.654;2022-09-02T05:17:25;6.82;;;5.00;;
74269;SDS011;62754;48.252;11.654;2022-09-02T05:19:53;6.97;;;5.30;;
74269;SDS011;62754;48.252;11.654;2022-09-02T05:22:19;6.43;;;4.88;;
74269;SDS011;62754;48.252;11.654;2022-09-02T05:24:47;6.25;;;5.18;;
74269;SDS011;62754;48.252;11.654;2022-09-02T05:27:13;5.70;;;4.95;;
74269;SDS011;62754;48.252;11.654;2022-09-02T05:29:39;6.57;;;5.15;;
74269;SDS011;62754;48.252;11.654;2022-09-02T05:32:05;8.48;;;5.63;;
74269;SDS011;62754;48.252;11.654;2022-09-02T05:34:30;6.25;;;5.10;;
74269;SDS011;62754;48.252;11.654;2022-09-02T05:36:57;7.00;;;5.07;;
74269;SDS011;62754;48.252;11.654;2022-09-02T05:39:23;5.68;;;4.90;;
74269;SDS011;62754;48.252;11.654;2022-09-02T05:41:48;6.32;;;5.13;;
74269;SDS011;62754;48.252;11.654;2022-09-02T05:44:14;6.18;;;5.00;;
74269;SDS011;62754;48.252;11.654;2022-09-02T05:46:40;6.60;;;4.78;;
74269;SDS011;62754;48.252;11.654;2022-09-02T05:49:06;5.53;;;4.80;;
74269;SDS011;62754;48.252;11.654;2022-09-02T05:51:33;5.82;;;4.80;;
74269;SDS011;62754;48.252;11.654;2022-09-02T05:54:15;5.72;;;4.43;;
74269;SDS011;62754;48.252;11.654;2022-09-02T05:56:43;6.53;;;4.43;;
74269;SDS011;62754;48.252;11.654;2022-09-02T05:59:12;6.97;;;4.65;;
74269;SDS011;62754;48.252;11.654;2022-09-02T06:01:38;5.18;;;4.28;;
74269;SDS011;62754;48.252;11.654;2022-09-02T06:04:04;7.40;;;4.80;;
74269;SDS011;62754;48.252;11.654;2022-09-02T06:06:30;6.53;;;4.43;;
74269;SDS011;62754;48.252;11.654;2022-09-02T06:08:57;4.90;;;4.32;;
74269;SDS011;62754;48.252;11.654;2022-09-02T06:11:24;7.75;;;4.60;;
74269;SDS011;62754;48.252;11.654;2022-09-02T06:13:50;5.82;;;4.60;;
74269;SDS011;62754;48.252;11.654;2022-09-02T06:16:17;4.97;;;4.20;;
74269;SDS011;62754;48.252;11.654;2022-09-02T06:18:47;5.20;;;4.35;;
74269;SDS011;62754;48.252;11.654;2022-09-02T06:21:14;8.07;;;4.90;;
74269;SDS011;62754;48.252;11.654;2022-09-02T06:26:07;5.47;;;4.43;;
74269;SDS011;62754;48.252;11.654;2022-09-02T06:28:34;5.47;;;4.03;;
74269;SDS011;62754;48.252;11.654;2022-09-02T06:31:11;4.82;;;3.92;;
74269;SDS011;62754;48.252;11.654;2022-09-02T06:33:39;5.72;;;3.88;;
74269;SDS011;62754;48.252;11.654;2022-09-02T06:36:07;5.82;;;3.80;;
74269;SDS011;62754;48.252;11.654;2022-09-02T06:38:40;6.50;;;3.67;;
74269;SDS011;62754;48.252;11.654;2022-09-02T06:41:09;5.88;;;3.83;;
74269;SDS011;62754;48.252;11.654;2022-09-02T06:43:36;5.93;;;3.47;;
74269;SDS011;62754;48.252;11.654;2022-09-02T06:46:02;6.03;;;3.30;;
74269;SDS011;62754;48.252;11.654;2022-09-02T06:48:28;5.43;;;3.75;;
74269;SDS011;62754;48.252;11.654;2022-09-02T06:50:54;5.90;;;3.22;;
74269;SDS011;62754;48.252;11.654;2022-09-02T06:53:20;5.43;;;3.53;;
74269;SDS011;62754;48.252;11.654;2022-09-02T06:55:46;4.93;;;3.35;;
74269;SDS011;62754;48.252;11.654;2022-09-02T06:58:12;5.18;;;3.22;;
74269;SDS011;62754;48.252;11.654;2022-09-02T07:00:38;4.20;;;2.97;;
74269;SDS011;62754;48.252;11.654;2022-09-02T07:03:06;3.90;;;2.97;;
74269;SDS011;62754;48.252;11.654;2022-09-02T07:05:32;6.18;;;3.42;;
74269;SDS011;62754;48.252;11.654;2022-09-02T07:07:58;4.88;;;3.03;;
74269;SDS011;62754;48.252;11.654;2022-09-02T07:10:24;4.38;;;3.10;;
74269;SDS011;62754;48.252;11.654;2022-09-02T07:12:49;4.40;;;3.00;;
74269;SDS011;62754;48.252;11.654;2022-09-02T07:15:15;6.43;;;2.80;;
74269;SDS011;62754;48.252;11.654;2022-09-02T07:17:41;10.30;;;2.97;;
74269;SDS011;62754;48.252;11.654;2022-09-02T07:20:07;8.02;;;2.95;;
74269;SDS011;62754;48.252;11.654;2022-09-02T07:24:59;3.25;;;2.40;;
74269;SDS011;62754;48.252;11.654;2022-09-02T07:27:24;3.50;;;2.20;;
74269;SDS011;62754;48.252;11.654;2022-09-02T07:29:50;3.53;;;2.20;;
74269;SDS011;62754;48.252;11.654;2022-09-02T07:32:16;5.22;;;2.33;;
74269;SDS011;62754;48.252;11.654;2022-09-02T07:34:42;3.90;;;2.60;;
74269;SDS011;62754;48.252;11.654;2022-09-02T07:37:08;6.13;;;2.35;;
74269;SDS011;62754;48.252;11.654;2022-09-02T07:39:34;3.88;;;2.72;;
74269;SDS011;62754;48.252;11.654;2022-09-02T07:42:00;3.90;;;2.30;;
74269;SDS011;62754;48.252;11.654;2022-09-02T07:44:27;4.72;;;2.42;;
74269;SDS011;62754;48.252;11.654;2022-09-02T07:46:53;5.80;;;2.40;;
74269;SDS011;62754;48.252;11.654;2022-09-02T07:49:18;3.45;;;2.30;;
74269;SDS011;62754;48.252;11.654;2022-09-02T07:51:46;4.95;;;2.47;;
74269;SDS011;62754;48.252;11.654;2022-09-02T07:54:14;3.63;;;2.28;;
74269;SDS011;62754;48.252;11.654;2022-09-02T07:56:41;4.13;;;2.25;;
74269;SDS011;62754;48.252;11.654;2022-09-02T07:59:07;5.65;;;2.22;;
74269;SDS011;62754;48.252;11.654;2022-09-02T08:01:33;2.80;;;1.90;;
74269;SDS011;62754;48.252;11.654;2022-09-02T08:03:59;3.75;;;2.13;;
74269;SDS011;62754;48.252;11.654;2022-09-02T08:06:24;3.15;;;2.20;;
74269;SDS011;62754;48.252;11.654;2022-09-02T08:08:50;6.65;;;1.90;;
74269;SDS011;62754;48.252;11.654;2022-09-02T08:11:16;4.28;;;1.70;;
74269;SDS011;62754;48.252;11.654;2022-09-02T08:13:42;3.22;;;1.50;;
74269;SDS011;62754;48.252;11.654;2022-09-02T08:16:07;3.97;;;1.92;;
74269;SDS011;62754;48.252;11.654;2022-09-02T08:18:33;3.78;;;1.60;;
74269;SDS011;62754;48.252;11.654;2022-09-02T08:20:59;3.72;;;1.67;;
74269;SDS011;62754;48.252;11.654;2022-09-02T08:23:25;4.65;;;1.48;;
74269;SDS011;62754;48.252;11.654;2022-09-02T08:25:50;3.38;;;1.50;;
74269;SDS011;62754;48.252;11.654;2022-09-02T08:28:16;4.32;;;1.67;;
74269;SDS011;62754;48.252;11.654;2022-09-02T08:30:42;3.35;;;1.35;;
74269;SDS011;62754;48.252;11.654;2022-09-02T08:33:08;3.28;;;1.52;;
74269;SDS011;62754;48.252;11.654;2022-09-02T08:35:33;4.35;;;1.48;;
74269;SDS011;62754;48.252;11.654;2022-09-02T08:37:59;5.78;;;1.70;;
74269;SDS011;62754;48.252;11.654;2022-09-02T08:40:40;3.80;;;1.60;;
74269;SDS011;62754;48.252;11.654;2022-09-02T08:43:27;3.67;;;1.40;;
74269;SDS011;62754;48.252;11.654;2022-09-02T08:45:59;2.97;;;1.48;;
74269;SDS011;62754;48.252;11.654;2022-09-02T08:51:09;3.75;;;1.50;;
74269;SDS011;62754;48.252;11.654;2022-09-02T08:53:56;2.33;;;1.30;;
74269;SDS011;62754;48.252;11.654;2022-09-02T08:56:28;3.08;;;1.33;;
74269;SDS011;62754;48.252;11.654;2022-09-02T08:58:54;3.13;;;1.15;;
74269;SDS011;62754;48.252;11.654;2022-09-02T09:10:08;2.75;;;1.10;;
74269;SDS011;62754;48.252;11.654;2022-09-02T09:20:23;1.95;;;1.02;;
74269;SDS011;62754;48.252;11.654;2022-09-02T09:22:54;1.92;;;0.98;;
74269;SDS011;62754;48.252;11.654;2022-09-02T09:25:21;3.70;;;1.10;;
74269;SDS011;62754;48.252;11.654;2022-09-02T09:27:47;3.33;;;1.10;;
74269;SDS011;62754;48.252;11.654;2022-09-02T09:30:13;4.13;;;1.23;;
74269;SDS011;62754;48.252;11.654;2022-09-02T09:32:40;2.53;;;0.90;;
74269;SDS011;62754;48.252;11.654;2022-09-02T09:35:11;2.40;;;1.10;;
74269;SDS011;62754;48.252;11.654;2022-09-02T09:37:41;2.22;;;1.00;;
74269;SDS011;62754;48.252;11.654;2022-09-02T09:42:43;3.33;;;1.00;;
74269;SDS011;62754;48.252;11.654;2022-09-02T09:45:15;2.38;;;1.02;;
74269;SDS011;62754;48.252;11.654;2022-09-02T09:47:44;2.42;;;0.88;;
74269;SDS011;62754;48.252;11.654;2022-09-02T09:50:15;2.40;;;1.00;;
74269;SDS011;62754;48.252;11.654;2022-09-02T09:52:41;3.03;;;0.98;;
74269;SDS011;62754;48.252;11.654;2022-09-02T09:55:17;5.82;;;0.98;;
74269;SDS011;62754;48.252;11.654;2022-09-02T09:57:45;2.50;;;1.00;;
74269;SDS011;62754;48.252;11.654;2022-09-02T10:02:57;1.98;;;0.80;;
74269;SDS011;62754;48.252;11.654;2022-09-02T10:05:32;2.88;;;0.73;;
74269;SDS011;62754;48.252;11.654;2022-09-02T10:08:01;1.95;;;0.95;;
74269;SDS011;62754;48.252;11.654;2022-09-02T10:10:29;2.95;;;0.80;;
74269;SDS011;62754;48.252;11.654;2022-09-02T10:12:57;2.03;;;0.90;;
74269;SDS011;62754;48.252;11.654;2022-09-02T10:15:32;2.28;;;0.88;;
74269;SDS011;62754;48.252;11.654;2022-09-02T10:26:19;2.00;;;0.73;;
74269;SDS011;62754;48.252;11.654;2022-09-02T10:31:59;2.03;;;0.80;;
74269;SDS011;62754;48.252;11.654;2022-09-02T10:37:31;3.58;;;0.90;;
74269;SDS011;62754;48.252;11.654;2022-09-02T10:40:11;1.70;;;0.80;;
74269;SDS011;62754;48.252;11.654;2022-09-02T10:45:28;1.95;;;0.80;;
74269;SDS011;62754;48.252;11.654;2022-09-02T10:50:55;1.65;;;0.70;;
74269;SDS011;62754;48.252;11.654;2022-09-02T10:53:35;3.67;;;0.77;;
74269;SDS011;62754;48.252;11.654;2022-09-02T10:56:24;3.30;;;0.77;;
74269;SDS011;62754;48.252;11.654;2022-09-02T10:58:58;3.42;;;0.57;;
74269;SDS011;62754;48.252;11.654;2022-09-02T11:01:55;1.63;;;0.80;;
74269;SDS011;62754;48.252;11.654;2022-09-02T11:04:32;2.90;;;0.80;;
74269;SDS011;62754;48.252;11.654;2022-09-02T11:09:40;4.47;;;0.65;;
74269;SDS011;62754;48.252;11.654;2022-09-02T11:12:30;1.40;;;0.60;;
74269;SDS011;62754;48.252;11.654;2022-09-02T11:23:21;2.20;;;0.90;;
74269;SDS011;62754;48.252;11.654;2022-09-02T11:31:03;2.75;;;0.63;;
74269;SDS011;62754;48.252;11.654;2022-09-02T11:36:40;1.88;;;0.60;;
74269;SDS011;62754;48.252;11.654;2022-09-02T11:39:08;1.13;;;0.50;;
74269;SDS011;62754;48.252;11.654;2022-09-02T11:50:07;2.53;;;0.50;;
74269;SDS011;62754;48.252;11.654;2022-09-02T11:52:42;1.92;;;0.60;;
74269;SDS011;62754;48.252;11.654;2022-09-02T11:55:20;1.90;;;0.90;;
74269;SDS011;62754;48.252;11.654;2022-09-02T11:57:53;2.10;;;0.90;;
74269;SDS011;62754;48.252;11.654;2022-09-02T12:00:24;4.43;;;0.75;;
74269;SDS011;62754;48.252;11.654;2022-09-02T12:03:16;1.83;;;0.60;;
74269;SDS011;62754;48.252;11.654;2022-09-02T12:05:45;1.85;;;0.80;;
74269;SDS011;62754;48.252;11.654;2022-09-02T12:08:55;2.40;;;0.70;;
74269;SDS011;62754;48.252;11.654;2022-09-02T12:10:59;4.05;;;0.82;;
74269;SDS011;62754;48.252;11.654;2022-09-02T12:13:33;2.60;;;0.70;;
74269;SDS011;62754;48.252;11.654;2022-09-02T12:18:37;4.97;;;0.70;;
74269;SDS011;62754;48.252;11.654;2022-09-02T12:21:10;2.85;;;0.77;;
74269;SDS011;62754;48.252;11.654;2022-09-02T12:26:14;3.40;;;0.70;;
74269;SDS011;62754;48.252;11.654;2022-09-02T12:28:42;74.55;;;16.38;;
74269;SDS011;62754;48.252;11.654;2022-09-02T12:31:09;1.25;;;0.65;;
74269;SDS011;62754;48.252;11.654;2022-09-02T12:33:37;3.15;;;0.90;;
74269;SDS011;62754;48.252;11.654;2022-09-02T12:36:08;3.25;;;0.70;;
74269;SDS011;62754;48.252;11.654;2022-09-02T12:38:54;3.38;;;1.13;;
74269;SDS011;62754;48.252;11.654;2022-09-02T12:41:46;4.13;;;1.20;;
74269;SDS011;62754;48.252;11.654;2022-09-02T12:52:48;2.08;;;0.70;;
74269;SDS011;62754;48.252;11.654;2022-09-02T12:58:03;2.53;;;0.80;;
74269;SDS011;62754;48.252;11.654;2022-09-02T13:06:25;2.20;;;0.70;;
74269;SDS011;62754;48.252;11.654;2022-09-02T13:12:01;2.50;;;0.82;;
74269;SDS011;62754;48.252;11.654;2022-09-02T13:19:48;2.63;;;0.70;;
74269;SDS011;62754;48.252;11.654;2022-09-02T13:31:26;1.15;;;0.50;;
74269;SDS011;62754;48.252;11.654;2022-09-02T13:33:58;2.33;;;0.75;;
74269;SDS011;62754;48.252;11.654;2022-09-02T13:36:28;1.58;;;0.60;;
74269;SDS011;62754;48.252;11.654;2022-09-02T13:39:11;2.95;;;0.90;;
74269;SDS011;62754;48.252;11.654;2022-09-02T13:41:57;2.25;;;0.70;;
74269;SDS011;62754;48.252;11.654;2022-09-02T13:44:24;2.55;;;0.80;;
74269;SDS011;62754;48.252;11.654;2022-09-02T13:47:01;2.92;;;0.70;;
74269;SDS011;62754;48.252;11.654;2022-09-02T13:49:39;1.10;;;0.50;;
74269;SDS011;62754;48.252;11.654;2022-09-02T13:52:07;1.90;;;0.70;;
74269;SDS011;62754;48.252;11.654;2022-09-02T13:54:39;2.92;;;0.70;;
74269;SDS011;62754;48.252;11.654;2022-09-02T13:57:11;2.47;;;0.90;;
74269;SDS011;62754;48.252;11.654;2022-09-02T13:59:49;2.35;;;0.73;;
74269;SDS011;62754;48.252;11.654;2022-09-02T14:07:48;2.25;;;0.70;;
74269;SDS011;62754;48.252;11.654;2022-09-02T14:10:17;1.83;;;0.70;;
74269;SDS011;62754;48.252;11.654;2022-09-02T14:12:44;1.35;;;0.73;;
74269;SDS011;62754;48.252;11.654;2022-09-02T14:15:15;2.80;;;0.70;;
74269;SDS011;62754;48.252;11.654;2022-09-02T14:18:05;2.08;;;0.70;;
74269;SDS011;62754;48.252;11.654;2022-09-02T14:20:35;2.50;;;0.80;;
74269;SDS011;62754;48.252;11.654;2022-09-02T14:23:03;1.35;;;0.70;;
74269;SDS011;62754;48.252;11.654;2022-09-02T14:25:35;2.08;;;0.90;;
74269;SDS011;62754;48.252;11.654;2022-09-02T14:28:05;1.90;;;0.60;;
74269;SDS011;62754;48.252;11.654;2022-09-02T14:30:36;1.50;;;0.70;;
74269;SDS011;62754;48.252;11.654;2022-09-02T14:36:03;3.05;;;0.80;;
74269;SDS011;62754;48.252;11.654;2022-09-02T14:38:36;1.70;;;0.70;;
74269;SDS011;62754;48.252;11.654;2022-09-02T14:46:14;1.15;;;0.57;;
74269;SDS011;62754;48.252;11.654;2022-09-02T14:48:51;2.38;;;1.00;;
74269;SDS011;62754;48.252;11.654;2022-09-02T14:51:25;1.60;;;0.68;;
74269;SDS011;62754;48.252;11.654;2022-09-02T14:54:31;3.50;;;0.80;;
74269;SDS011;62754;48.252;11.654;2022-09-02T14:57:03;1.85;;;0.70;;
74269;SDS011;62754;48.252;11.654;2022-09-02T14:59:29;3.00;;;0.70;;
74269;SDS011;62754;48.252;11.654;2022-09-02T15:01:55;1.15;;;0.50;;
74269;SDS011;62754;48.252;11.654;2022-09-02T15:04:23;2.08;;;0.70;;
74269;SDS011;62754;48.252;11.654;2022-09-02T15:06:49;2.97;;;0.73;;
74269;SDS011;62754;48.252;11.654;2022-09-02T15:09:15;1.98;;;0.63;;
74269;SDS011;62754;48.252;11.654;2022-09-02T15:11:41;1.50;;;0.60;;
74269;SDS011;62754;48.252;11.654;2022-09-02T15:14:10;2.30;;;0.80;;
74269;SDS011;62754;48.252;11.654;2022-09-02T15:16:36;1.42;;;0.70;;
74269;SDS011;62754;48.252;11.654;2022-09-02T15:19:02;2.42;;;0.80;;
74269;SDS011;62754;48.252;11.654;2022-09-02T15:21:27;2.25;;;0.77;;
74269;SDS011;62754;48.252;11.654;2022-09-02T15:23:53;3.08;;;0.88;;
74269;SDS011;62754;48.252;11.654;2022-09-02T15:26:19;2.50;;;0.80;;
74269;SDS011;62754;48.252;11.654;2022-09-02T15:28:45;2.03;;;0.68;;
74269;SDS011;62754;48.252;11.654;2022-09-02T15:31:10;2.72;;;0.60;;
74269;SDS011;62754;48.252;11.654;2022-09-02T15:33:36;2.13;;;0.68;;
74269;SDS011;62754;48.252;11.654;2022-09-02T15:36:09;3.08;;;0.80;;
74269;SDS011;62754;48.252;11.654;2022-09-02T15:38:37;1.83;;;0.70;;
74269;SDS011;62754;48.252;11.654;2022-09-02T15:41:10;1.98;;;0.77;;
74269;SDS011;62754;48.252;11.654;2022-09-02T15:43:36;1.52;;;0.73;;
74269;SDS011;62754;48.252;11.654;2022-09-02T15:46:02;2.53;;;0.95;;
74269;SDS011;62754;48.252;11.654;2022-09-02T15:48:30;1.70;;;0.80;;
74269;SDS011;62754;48.252;11.654;2022-09-02T15:50:56;3.35;;;0.80;;
74269;SDS011;62754;48.252;11.654;2022-09-02T15:53:22;2.55;;;0.80;;
74269;SDS011;62754;48.252;11.654;2022-09-02T15:55:50;1.65;;;0.80;;
74269;SDS011;62754;48.252;11.654;2022-09-02T15:58:16;3.15;;;0.73;;
74269;SDS011;62754;48.252;11.654;2022-09-02T16:00:42;1.83;;;0.80;;
74269;SDS011;62754;48.252;11.654;2022-09-02T16:03:08;1.92;;;0.90;;
74269;SDS011;62754;48.252;11.654;2022-09-02T16:05:33;2.00;;;0.80;;
74269;SDS011;62754;48.252;11.654;2022-09-02T16:07:59;1.50;;;0.80;;
74269;SDS011;62754;48.252;11.654;2022-09-02T16:10:25;2.88;;;0.85;;
74269;SDS011;62754;48.252;11.654;2022-09-02T16:12:51;2.38;;;1.15;;
74269;SDS011;62754;48.252;11.654;2022-09-02T16:15:16;3.28;;;0.80;;
74269;SDS011;62754;48.252;11.654;2022-09-02T16:17:42;2.30;;;0.80;;
74269;SDS011;62754;48.252;11.654;2022-09-02T16:20:08;1.50;;;0.70;;
74269;SDS011;62754;48.252;11.654;2022-09-02T16:22:34;2.38;;;0.80;;
74269;SDS011;62754;48.252;11.654;2022-09-02T16:25:00;1.52;;;0.80;;
74269;SDS011;62754;48.252;11.654;2022-09-02T16:27:25;1.20;;;0.70;;
74269;SDS011;62754;48.252;11.654;2022-09-02T16:29:51;1.80;;;0.80;;
74269;SDS011;62754;48.252;11.654;2022-09-02T16:32:17;1.45;;;0.70;;
74269;SDS011;62754;48.252;11.654;2022-09-02T16:34:43;2.15;;;0.80;;
74269;SDS011;62754;48.252;11.654;2022-09-02T16:37:08;4.15;;;1.10;;
74269;SDS011;62754;48.252;11.654;2022-09-02T16:39:34;3.33;;;0.93;;
74269;SDS011;62754;48.252;11.654;2022-09-02T16:42:00;2.65;;;0.75;;
74269;SDS011;62754;48.252;11.654;2022-09-02T16:44:25;1.77;;;0.80;;
74269;SDS011;62754;48.252;11.654;2022-09-02T16:46:51;3.00;;;0.90;;
74269;SDS011;62754;48.252;11.654;2022-09-02T16:49:18;1.38;;;0.75;;
74269;SDS011;62754;48.252;11.654;2022-09-02T16:51:45;1.80;;;0.82;;
74269;SDS011;62754;48.252;11.654;2022-09-02T16:54:13;1.13;;;0.57;;
74269;SDS011;62754;48.252;11.654;2022-09-02T16:56:39;4.00;;;0.80;;
74269;SDS011;62754;48.252;11.654;2022-09-02T16:59:06;2.33;;;1.08;;
74269;SDS011;62754;48.252;11.654;2022-09-02T17:01:34;1.70;;;0.70;;
74269;SDS011;62754;48.252;11.654;2022-09-02T17:04:00;1.88;;;0.80;;
74269;SDS011;62754;48.252;11.654;2022-09-02T17:06:27;2.22;;;0.80;;